Time;durP1;ratioP1;P1;durP2;ratioP2;P2;SDS_P1;SDS_P2;PMS_P1;PMS_P2;Temp;Humidity;BMP_temperature;BMP_pressure;BME280_temperature;BME280_humidity;BME280_pressure;Samples;Min_cycle;Max_cycle;Signal;HPM_P1;HPM_P2
2021/10/20 00:00:37;;;;;;;2.63;1.98;;;;;;;13.58;66.38;101467.97;5035877;28;20025;-75
2021/10/20 00:03:05;;;;;;;2.80;2.60;;;;;;;13.50;66.14;101466.94;5036356;28;20036;-74
2021/10/20 00:05:31;;;;;;;3.67;2.58;;;;;;;13.37;66.55;101479.31;5035980;28;20029;-75
2021/10/20 00:07:57;;;;;;;2.60;2.40;;;;;;;13.34;67.46;101471.63;5035706;28;20033;-75
2021/10/20 00:10:25;;;;;;;4.00;2.38;;;;;;;13.29;67.36;101477.44;5035573;28;20033;-75
2021/10/20 00:12:51;;;;;;;3.47;2.80;;;;;;;13.26;67.43;101469.75;5035675;28;20125;-75
2021/10/20 00:15:22;;;;;;;2.70;2.50;;;;;;;13.25;67.34;101470.91;5024426;28;20053;-74
2021/10/20 00:17:51;;;;;;;2.55;2.35;;;;;;;13.25;66.85;101465.34;5015902;28;20506;-74
2021/10/20 00:20:21;;;;;;;2.65;2.45;;;;;;;13.16;67.72;101467.41;5016177;28;20061;-75
2021/10/20 00:22:47;;;;;;;2.65;2.45;;;;;;;13.14;68.14;101469.72;5016840;28;20161;-74
2021/10/20 00:25:14;;;;;;;3.00;2.75;;;;;;;13.16;68.20;101464.63;5015627;28;20042;-74
2021/10/20 00:30:30;;;;;;;3.00;2.70;;;;;;;13.15;68.19;101468.56;5034231;28;20084;-75
2021/10/20 00:32:59;;;;;;;2.70;2.50;;;;;;;13.23;67.88;101462.09;5016209;28;20049;-74
2021/10/20 00:35:31;;;;;;;2.80;2.60;;;;;;;13.19;67.56;101461.13;5016798;28;20060;-75
2021/10/20 00:37:59;;;;;;;3.08;2.88;;;;;;;13.24;67.64;101469.28;5015878;28;20026;-74
2021/10/20 00:40:25;;;;;;;3.05;2.78;;;;;;;13.13;67.84;101468.91;5015721;28;20034;-74
2021/10/20 00:42:53;;;;;;;3.60;2.85;;;;;;;13.03;68.48;101467.41;5016319;28;20028;-74
2021/10/20 00:45:22;;;;;;;2.72;2.53;;;;;;;12.96;68.79;101464.38;5015804;28;20037;-74
2021/10/20 00:47:47;;;;;;;2.85;2.58;;;;;;;12.97;68.49;101466.00;5019451;28;20032;-74
2021/10/20 00:50:18;;;;;;;3.20;2.65;;;;;;;13.01;68.74;101461.34;5019912;28;20467;-75
2021/10/20 00:52:44;;;;;;;2.88;2.58;;;;;;;12.99;69.05;101460.88;5021045;28;20057;-75
2021/10/20 00:55:12;;;;;;;3.75;2.95;;;;;;;13.06;68.67;101463.09;5021641;28;20048;-74
2021/10/20 00:57:44;;;;;;;3.03;2.80;;;;;;;12.99;68.97;101458.06;5019079;28;20104;-74
2021/10/20 01:00:11;;;;;;;3.30;3.00;;;;;;;13.00;69.02;101459.72;5018983;28;20091;-74
2021/10/20 01:02:39;;;;;;;3.10;2.90;;;;;;;12.95;69.13;101457.16;5018806;28;20108;-74
2021/10/20 01:05:06;;;;;;;2.80;2.60;;;;;;;12.98;68.98;101464.84;5018970;28;20037;-74
2021/10/20 01:07:34;;;;;;;2.95;2.70;;;;;;;12.99;69.28;101463.66;5036658;28;20471;-74
2021/10/20 01:09:59;;;;;;;3.22;3.03;;;;;;;12.95;68.96;101454.38;5018801;28;20045;-74
2021/10/20 01:12:25;;;;;;;2.90;2.70;;;;;;;12.88;69.81;101462.50;5018606;28;20046;-74
2021/10/20 01:14:51;;;;;;;5.40;3.22;;;;;;;12.83;69.66;101454.34;5022789;28;20041;-77
2021/10/20 01:17:17;;;;;;;3.20;2.90;;;;;;;12.80;69.91;101455.06;5018760;28;20494;-74
2021/10/20 01:19:43;;;;;;;3.28;3.03;;;;;;;12.84;70.21;101444.81;5018787;28;20539;-75
2021/10/20 01:22:12;;;;;;;4.68;4.28;;;;;;;12.87;70.60;101449.69;5018940;28;20112;-75
2021/10/20 01:24:38;;;;;;;3.85;3.55;;;;;;;12.89;70.27;101450.19;5018733;28;20033;-74
2021/10/20 01:27:05;;;;;;;3.40;3.20;;;;;;;12.92;70.69;101452.25;5019045;28;20482;-74
2021/10/20 01:29:31;;;;;;;3.13;2.92;;;;;;;12.98;69.80;101450.88;5018513;28;20079;-74
2021/10/20 01:31:59;;;;;;;5.10;2.80;;;;;;;12.88;69.30;101447.72;5019641;28;20025;-75
2021/10/20 01:34:25;;;;;;;2.80;2.60;;;;;;;12.90;69.27;101443.44;5019756;28;20472;-75
2021/10/20 01:36:52;;;;;;;3.20;3.00;;;;;;;12.98;68.51;101442.47;5019639;28;20586;-74
2021/10/20 01:39:20;;;;;;;3.38;3.05;;;;;;;12.93;69.08;101445.50;5019310;28;20038;-76
2021/10/20 01:41:49;;;;;;;2.63;2.40;;;;;;;12.91;69.33;101445.06;5019103;28;20068;-74
2021/10/20 01:44:18;;;;;;;3.08;2.80;;;;;;;12.97;68.09;101438.06;5019570;28;20061;-74
2021/10/20 01:46:43;;;;;;;3.63;2.80;;;;;;;12.88;68.63;101440.16;5019862;28;20033;-75
2021/10/20 01:49:12;;;;;;;4.45;2.97;;;;;;;12.80;69.25;101432.72;5019336;28;20395;-75
2021/10/20 01:51:38;;;;;;;2.90;2.58;;;;;;;12.86;70.06;101431.31;5019624;28;20048;-74
2021/10/20 01:54:05;;;;;;;3.50;3.15;;;;;;;12.94;69.77;101432.34;5019689;28;20026;-74
2021/10/20 01:56:31;;;;;;;2.97;2.67;;;;;;;13.00;69.74;101436.56;5019168;28;20025;-74
2021/10/20 01:58:57;;;;;;;4.40;2.80;;;;;;;13.07;69.10;101437.59;5018219;28;20124;-75
2021/10/20 02:01:25;;;;;;;3.45;3.15;;;;;;;13.36;68.22;101424.56;5018494;28;20030;-74
2021/10/20 02:03:51;;;;;;;3.65;3.35;;;;;;;13.44;68.17;101418.03;5017900;28;20021;-75
2021/10/20 02:06:19;;;;;;;4.47;3.40;;;;;;;13.51;67.06;101418.25;5018595;28;20037;-74
2021/10/20 02:08:46;;;;;;;3.22;2.92;;;;;;;13.41;67.47;101423.50;5036570;28;20091;-75
2021/10/20 02:11:12;;;;;;;3.60;3.30;;;;;;;13.26;68.10;101428.66;5019197;28;20083;-75
2021/10/20 02:13:39;;;;;;;3.38;3.08;;;;;;;13.20;68.85;101424.44;5018547;28;20021;-74
2021/10/20 02:16:08;;;;;;;2.92;2.72;;;;;;;13.22;69.62;101422.16;5050400;28;20151;-75
2021/10/20 02:18:36;;;;;;;3.25;2.95;;;;;;;13.29;68.93;101415.97;5037341;28;20033;-74
2021/10/20 02:21:05;;;;;;;19.10;10.35;;;;;;;13.37;68.10;101417.81;5037312;28;20057;-74
2021/10/20 02:23:31;;;;;;;18.80;15.02;;;;;;;13.31;68.04;101413.63;5037269;28;20064;-76
2021/10/20 02:26:02;;;;;;;22.10;16.55;;;;;;;13.07;69.09;101418.03;5036979;28;20119;-74
2021/10/20 02:28:28;;;;;;;16.27;14.50;;;;;;;13.03;69.12;101411.53;5037457;28;20021;-74
2021/10/20 02:30:57;;;;;;;16.98;15.10;;;;;;;13.04;69.06;101412.31;5037681;28;20391;-74
2021/10/20 02:33:23;;;;;;;14.15;12.63;;;;;;;12.94;69.80;101415.59;5037141;28;20120;-74
2021/10/20 02:35:51;;;;;;;11.70;10.50;;;;;;;12.94;70.08;101410.81;5038025;28;20084;-75
2021/10/20 02:38:17;;;;;;;9.10;8.18;;;;;;;13.01;69.24;101411.06;5037362;28;20060;-74
2021/10/20 02:40:42;;;;;;;10.45;8.68;;;;;;;12.90;69.23;101414.69;5037010;28;20033;-75
2021/10/20 02:43:08;;;;;;;16.25;12.50;;;;;;;12.84;69.10;101409.31;5036851;28;20025;-75
2021/10/20 02:45:37;;;;;;;7.20;6.60;;;;;;;12.80;68.57;101410.38;5036998;28;20048;-74
2021/10/20 02:48:08;;;;;;;7.90;5.13;;;;;;;12.77;68.64;101416.63;5037127;28;20052;-74
2021/10/20 02:50:34;;;;;;;4.40;4.00;;;;;;;12.75;69.24;101407.78;5036917;28;20514;-74
2021/10/20 02:53:02;;;;;;;4.63;4.22;;;;;;;12.70;69.46;101419.19;5036683;28;20147;-75
2021/10/20 02:55:31;;;;;;;5.75;5.15;;;;;;;12.75;69.04;101408.59;5036912;28;20036;-74
2021/10/20 02:57:59;;;;;;;4.82;4.43;;;;;;;12.79;69.53;101414.31;5036543;28;20028;-75
2021/10/20 03:00:25;;;;;;;4.65;4.25;;;;;;;12.83;69.49;101418.03;5037103;28;20056;-74
2021/10/20 03:02:51;;;;;;;4.95;4.55;;;;;;;12.85;68.71;101412.94;5036356;28;20481;-74
2021/10/20 03:05:19;;;;;;;3.50;3.20;;;;;;;12.81;68.21;101420.38;5036436;28;20032;-74
2021/10/20 03:07:49;;;;;;;4.85;3.20;;;;;;;12.77;69.35;101423.03;5036884;28;20025;-74
2021/10/20 03:10:17;;;;;;;4.57;3.70;;;;;;;12.81;69.67;101418.38;5036263;28;20021;-75
2021/10/20 03:12:43;;;;;;;18.33;16.35;;;;;;;12.84;68.70;101422.47;5036748;28;20524;-74
2021/10/20 03:15:13;;;;;;;24.10;21.60;;;;;;;12.83;68.87;101418.03;5040258;28;20148;-74
2021/10/20 03:17:41;;;;;;;15.65;14.05;;;;;;;12.91;68.37;101417.13;5054142;28;20025;-74
2021/10/20 03:20:09;;;;;;;13.07;10.45;;;;;;;12.72;68.18;101414.06;5054850;28;20029;-74
2021/10/20 03:22:39;;;;;;;6.35;5.75;;;;;;;12.68;69.28;101424.31;5054756;28;20086;-74
2021/10/20 03:25:06;;;;;;;6.53;3.70;;;;;;;12.57;69.48;101418.38;5053371;28;20028;-74
2021/10/20 03:27:34;;;;;;;5.53;5.03;;;;;;;12.66;70.08;101421.03;5053987;28;20032;-74
2021/10/20 03:30:02;;;;;;;6.20;5.60;;;;;;;12.65;69.89;101425.00;5052750;28;20033;-74
2021/10/20 03:32:31;;;;;;;5.28;4.78;;;;;;;12.59;70.04;101416.84;5052957;28;20074;-75
2021/10/20 03:34:56;;;;;;;4.80;4.38;;;;;;;12.61;70.02;101419.28;5053074;28;20536;-74
2021/10/20 03:37:25;;;;;;;6.80;6.10;;;;;;;12.58;69.92;101422.78;5052621;28;20057;-74
2021/10/20 03:39:50;;;;;;;5.55;5.05;;;;;;;12.53;70.44;101417.44;5052671;28;20525;-74
2021/10/20 03:42:16;;;;;;;6.65;5.95;;;;;;;12.41;70.65;101421.00;5052495;28;20025;-75
2021/10/20 03:44:47;;;;;;;6.40;5.80;;;;;;;12.37;70.52;101420.06;5052393;28;20085;-75
2021/10/20 03:47:15;;;;;;;7.88;6.55;;;;;;;12.37;70.59;101422.84;5052274;28;20059;-74
2021/10/20 03:49:41;;;;;;;8.15;6.55;;;;;;;12.38;71.08;101421.69;5053158;28;20036;-75
2021/10/20 03:52:07;;;;;;;7.93;7.13;;;;;;;12.41;70.62;101421.00;5052569;28;20033;-75
2021/10/20 03:54:37;;;;;;;7.78;5.65;;;;;;;12.44;69.77;101423.09;5052465;28;20029;-73
2021/10/20 03:57:03;;;;;;;5.88;4.72;;;;;;;12.35;70.49;101422.38;5053175;28;20029;-74
2021/10/20 03:59:29;;;;;;;4.20;2.90;;;;;;;12.39;69.94;101423.31;5052489;28;20360;-74
2021/10/20 04:01:57;;;;;;;4.07;3.65;;;;;;;12.35;70.04;101429.94;5052318;28;20024;-75
2021/10/20 04:04:23;;;;;;;7.38;3.38;;;;;;;12.33;70.54;101424.69;5052952;28;20033;-74
2021/10/20 04:06:48;;;;;;;3.80;3.50;;;;;;;12.34;71.67;101423.53;5052688;28;20025;-75
2021/10/20 04:09:20;;;;;;;3.17;2.88;;;;;;;12.50;70.75;101429.28;5052617;28;20040;-72
2021/10/20 04:11:48;;;;;;;7.18;3.30;;;;;;;12.51;69.87;101428.91;5052413;28;20047;-74
2021/10/20 04:14:17;;;;;;;3.30;3.00;;;;;;;12.52;70.06;101426.97;5052416;28;20043;-74
2021/10/20 04:16:45;;;;;;;3.35;3.05;;;;;;;12.53;70.05;101421.03;5052562;28;20036;-74
2021/10/20 04:19:12;;;;;;;3.75;3.35;;;;;;;12.46;70.11;101426.34;5052883;28;20441;-74
2021/10/20 04:21:43;;;;;;;3.95;2.97;;;;;;;12.52;69.72;101424.19;5053880;28;20024;-74
2021/10/20 04:24:14;;;;;;;2.83;2.63;;;;;;;12.46;69.46;101429.13;5056800;28;20094;-74
2021/10/20 04:26:40;;;;;;;2.53;2.35;;;;;;;12.40;69.98;101422.16;5056027;28;20032;-74
2021/10/20 04:29:06;;;;;;;4.30;3.30;;;;;;;12.33;70.11;101425.50;5056666;28;20037;-74
2021/10/20 04:31:31;;;;;;;2.75;2.55;;;;;;;12.28;69.96;101422.94;5056599;28;20021;-75
2021/10/20 04:33:57;;;;;;;2.33;2.13;;;;;;;12.31;69.73;101421.44;5056233;28;20120;-73
2021/10/20 04:36:23;;;;;;;3.58;3.28;;;;;;;12.29;70.06;101429.34;5055973;28;20475;-74
2021/10/20 04:38:48;;;;;;;2.55;2.35;;;;;;;12.28;68.95;101417.34;5056382;28;20123;-74
2021/10/20 04:41:14;;;;;;;2.40;2.20;;;;;;;12.27;70.32;101421.31;5056031;28;20462;-74
2021/10/20 04:43:40;;;;;;;2.80;2.60;;;;;;;12.18;70.46;101417.78;5055739;28;20036;-74
2021/10/20 04:46:08;;;;;;;3.38;2.40;;;;;;;12.17;69.90;101426.50;5056145;28;20053;-74
2021/10/20 04:48:37;;;;;;;4.10;2.75;;;;;;;12.16;70.21;101422.09;5055874;28;20029;-74
2021/10/20 04:51:02;;;;;;;3.15;2.88;;;;;;;12.22;70.48;101415.13;5055741;28;20028;-74
2021/10/20 04:53:31;;;;;;;3.25;2.95;;;;;;;12.20;71.05;101417.47;5055766;28;20025;-74
2021/10/20 04:55:57;;;;;;;4.13;3.72;;;;;;;12.27;70.40;101426.91;5055677;28;20028;-74
2021/10/20 04:58:23;;;;;;;2.83;2.63;;;;;;;12.26;70.25;101414.09;5055646;28;20138;-75
2021/10/20 05:00:48;;;;;;;3.38;3.10;;;;;;;12.31;69.80;101415.88;5055575;28;20074;-74
2021/10/20 05:03:14;;;;;;;4.10;3.22;;;;;;;12.40;69.95;101413.78;5055657;28;20071;-75
2021/10/20 05:05:39;;;;;;;3.67;3.25;;;;;;;12.38;69.82;101416.09;5055438;28;20031;-74
2021/10/20 05:08:08;;;;;;;5.47;3.50;;;;;;;12.35;70.11;101407.59;5055982;28;20402;-74
2021/10/20 05:10:38;;;;;;;3.92;2.83;;;;;;;12.44;70.49;101408.31;5055578;28;20033;-74
2021/10/20 05:13:06;;;;;;;4.72;3.08;;;;;;;12.46;69.54;101406.00;5055300;28;20032;-74
2021/10/20 05:15:35;;;;;;;6.32;3.15;;;;;;;12.48;68.83;101404.50;5037566;28;20049;-74
2021/10/20 05:18:01;;;;;;;3.88;3.50;;;;;;;12.43;69.27;101404.72;5019308;28;20072;-74
2021/10/20 05:20:27;;;;;;;5.90;3.85;;;;;;;12.36;69.40;101410.06;5019313;28;20061;-74
2021/10/20 05:22:55;;;;;;;3.80;3.40;;;;;;;12.32;69.21;101400.75;5018751;28;20028;-74
2021/10/20 05:25:23;;;;;;;7.35;3.58;;;;;;;12.28;69.14;101411.78;5018991;28;20490;-74
2021/10/20 05:27:51;;;;;;;5.00;3.30;;;;;;;12.31;68.83;101404.72;5018905;28;20037;-74
2021/10/20 05:30:16;;;;;;;3.38;3.15;;;;;;;12.42;69.55;101407.88;5018581;28;20181;-74
2021/10/20 05:32:42;;;;;;;6.70;5.55;;;;;;;12.78;67.79;101409.88;5017298;28;20065;-74
2021/10/20 05:35:09;;;;;;;13.82;10.98;;;;;;;13.41;65.09;101407.53;5018181;28;20036;-74
2021/10/20 05:37:38;;;;;;;12.05;7.93;;;;;;;14.02;63.64;101412.97;5018512;28;20041;-74
2021/10/20 05:40:07;;;;;;;7.53;5.22;;;;;;;14.59;61.48;101417.31;5018472;28;20037;-73
2021/10/20 05:42:35;;;;;;;4.38;3.70;;;;;;;15.13;59.91;101416.69;5018081;28;20124;-73
2021/10/20 05:45:01;;;;;;;3.58;3.28;;;;;;;15.68;57.99;101411.13;5017691;28;20040;-74
2021/10/20 05:47:29;;;;;;;4.85;3.75;;;;;;;16.20;55.80;101407.00;5018304;28;20033;-74
2021/10/20 05:49:57;;;;;;;5.32;3.55;;;;;;;16.74;54.32;101400.38;5018048;28;20029;-73
2021/10/20 05:52:23;;;;;;;5.32;3.60;;;;;;;17.23;53.21;101405.16;5018291;28;20022;-73
2021/10/20 05:54:51;;;;;;;9.38;3.85;;;;;;;17.69;51.68;101411.47;5017628;28;20490;-74
2021/10/20 05:57:16;;;;;;;7.05;3.05;;;;;;;18.14;50.56;101412.44;5035036;28;20108;-74
2021/10/20 05:59:45;;;;;;;3.55;2.80;;;;;;;18.61;49.78;101416.56;5017715;28;20033;-72
2021/10/20 06:02:16;;;;;;;4.47;3.13;;;;;;;19.10;48.28;101418.22;5017521;28;20476;-72
2021/10/20 06:04:47;;;;;;;3.85;2.72;;;;;;;19.72;46.92;101421.06;5017247;28;20034;-73
2021/10/20 06:07:15;;;;;;;2.90;2.60;;;;;;;20.20;45.35;101423.69;5017480;28;20463;-73
2021/10/20 06:09:46;;;;;;;4.47;3.58;;;;;;;20.55;44.24;101427.81;5017145;28;20026;-73
2021/10/20 06:12:12;;;;;;;5.82;3.05;;;;;;;20.77;43.67;101432.28;5017212;28;20030;-73
2021/10/20 06:14:41;;;;;;;5.25;3.40;;;;;;;21.21;43.27;101431.09;5019480;28;20056;-73
2021/10/20 06:17:12;;;;;;;4.85;3.15;;;;;;;21.50;42.21;101428.22;5036573;28;20120;-73
2021/10/20 06:19:40;;;;;;;6.78;3.65;;;;;;;21.65;42.17;101429.81;5036648;28;20036;-74
2021/10/20 06:22:06;;;;;;;3.42;3.13;;;;;;;22.03;41.43;101428.03;5036352;28;20024;-74
2021/10/20 06:24:35;;;;;;;4.80;3.30;;;;;;;22.31;40.87;101431.97;5036617;28;20390;-73
2021/10/20 06:27:01;;;;;;;3.83;3.53;;;;;;;22.66;39.87;101430.97;5036517;28;20036;-74
2021/10/20 06:29:27;;;;;;;5.10;3.42;;;;;;;22.89;39.40;101439.72;5036617;28;20029;-74
2021/10/20 06:31:54;;;;;;;5.00;3.20;;;;;;;23.23;38.52;101448.38;5036524;28;20033;-74
2021/10/20 06:34:19;;;;;;;3.70;3.40;;;;;;;23.11;38.34;101443.19;5037066;28;20029;-73
2021/10/20 06:36:48;;;;;;;4.63;3.70;;;;;;;23.50;38.92;101439.97;5036384;28;20078;-72
2021/10/20 06:39:24;;;;;;;5.95;3.50;;;;;;;23.59;38.06;101441.50;5036058;28;20040;-73
2021/10/20 06:41:53;;;;;;;5.93;3.03;;;;;;;23.82;37.91;101449.41;5036270;28;20044;-73
2021/10/20 06:44:24;;;;;;;7.43;3.53;;;;;;;23.75;37.50;101447.44;5035785;28;20029;-74
2021/10/20 06:46:53;;;;;;;4.78;2.90;;;;;;;23.93;36.95;101439.53;5036154;28;20049;-74
2021/10/20 06:49:20;;;;;;;2.63;2.42;;;;;;;24.13;36.85;101448.22;5036798;28;20032;-74
2021/10/20 06:51:46;;;;;;;3.65;3.20;;;;;;;23.77;36.75;101450.69;5054246;28;20457;-74
2021/10/20 06:54:18;;;;;;;3.50;3.20;;;;;;;23.76;37.25;101454.75;5036099;28;20068;-74
2021/10/20 06:56:51;;;;;;;3.28;3.03;;;;;;;23.91;36.01;101459.03;5053835;28;20035;-74
2021/10/20 06:59:17;;;;;;;2.70;2.50;;;;;;;24.16;35.14;101461.56;5035862;28;20029;-74
2021/10/20 07:01:43;;;;;;;2.42;2.08;;;;;;;23.81;35.16;101459.16;5035726;28;20029;-74
2021/10/20 07:04:11;;;;;;;3.58;2.40;;;;;;;24.08;35.07;101464.94;5035998;28;20110;-74
2021/10/20 07:06:39;;;;;;;3.35;2.50;;;;;;;24.45;35.27;101458.34;5036413;28;20358;-74
2021/10/20 07:09:09;;;;;;;2.10;1.98;;;;;;;24.64;34.38;101465.41;5035913;28;20116;-74
2021/10/20 07:11:35;;;;;;;2.17;1.98;;;;;;;24.20;35.25;101467.22;5036154;28;20049;-73
2021/10/20 07:14:06;;;;;;;2.00;1.90;;;;;;;24.40;34.73;101456.81;5035484;28;20135;-74
2021/10/20 07:16:38;;;;;;;7.20;2.28;;;;;;;24.28;35.51;101465.88;5050523;28;20056;-73
2021/10/20 07:19:09;;;;;;;7.87;3.73;;;;;;;24.16;36.32;101472.94;5053719;28;20025;-74
2021/10/20 07:21:38;;;;;;;5.10;3.35;;;;;;;24.52;35.79;101472.50;5052084;28;20056;-74
2021/10/20 07:24:07;;;;;;;6.22;3.70;;;;;;;24.70;35.72;101463.69;5052000;28;20471;-74
2021/10/20 07:26:36;;;;;;;6.05;3.45;;;;;;;24.45;35.78;101467.72;5052750;28;20433;-74
2021/10/20 07:29:04;;;;;;;7.07;4.07;;;;;;;23.98;36.73;101470.31;5052291;28;20037;-74
2021/10/20 07:31:36;;;;;;;4.53;3.10;;;;;;;23.82;37.97;101472.94;5052160;28;20091;-74
2021/10/20 07:34:04;;;;;;;5.40;3.60;;;;;;;24.05;36.79;101475.91;5051851;28;20033;-74
2021/10/20 07:36:33;;;;;;;3.17;2.97;;;;;;;24.44;35.98;101474.63;5052582;28;20036;-74
2021/10/20 07:39:01;;;;;;;3.97;2.33;;;;;;;24.09;35.85;101477.91;5052009;28;20116;-75
2021/10/20 07:41:29;;;;;;;3.33;3.03;;;;;;;24.14;36.10;101471.75;5053410;28;20531;-74
2021/10/20 07:43:58;;;;;;;2.70;2.45;;;;;;;23.69;36.32;101474.72;5051613;28;20027;-74
2021/10/20 07:46:24;;;;;;;2.45;2.25;;;;;;;23.27;38.04;101471.03;5052367;28;20429;-74
2021/10/20 07:48:50;;;;;;;3.15;2.85;;;;;;;24.09;36.40;101473.03;5052109;28;20037;-74
2021/10/20 07:51:18;;;;;;;4.22;2.92;;;;;;;23.85;36.41;101476.97;5051818;28;20029;-74
2021/10/20 07:53:47;;;;;;;3.60;2.50;;;;;;;23.83;36.29;101483.09;5052422;28;20055;-74
2021/10/20 07:56:13;;;;;;;3.78;3.40;;;;;;;24.19;35.44;101482.66;5052625;28;20025;-74
2021/10/20 07:58:41;;;;;;;3.35;2.70;;;;;;;23.33;37.56;101480.72;5055962;28;20471;-74
2021/10/20 08:01:11;;;;;;;3.15;2.75;;;;;;;23.34;37.83;101482.34;5056228;28;20596;-74
2021/10/20 08:03:37;;;;;;;3.60;3.28;;;;;;;23.74;37.67;101477.09;5055770;28;20033;-74
2021/10/20 08:06:03;;;;;;;2.88;2.63;;;;;;;23.48;38.04;101487.88;5055650;28;20060;-74
2021/10/20 08:08:32;;;;;;;2.65;2.45;;;;;;;24.04;36.73;101484.88;5055563;28;20462;-74
2021/10/20 08:11:00;;;;;;;2.92;2.03;;;;;;;23.86;36.83;101487.91;5055759;28;20033;-74
2021/10/20 08:13:26;;;;;;;3.28;2.58;;;;;;;23.68;36.69;101495.81;5055794;28;20032;-73
2021/10/20 08:15:51;;;;;;;3.38;3.05;;;;;;;24.13;36.22;101490.03;5054712;28;20131;-74
2021/10/20 08:18:20;;;;;;;4.40;2.60;;;;;;;24.17;35.54;101500.13;5056174;28;20029;-73
2021/10/20 08:20:48;;;;;;;2.47;2.28;;;;;;;24.24;34.79;101488.69;5055461;28;20106;-74
2021/10/20 08:23:17;;;;;;;2.00;1.90;;;;;;;24.08;35.23;101488.50;5055373;28;20031;-74
2021/10/20 08:25:42;;;;;;;2.17;2.08;;;;;;;24.39;34.65;101483.63;5055445;28;20029;-75
2021/10/20 08:28:11;;;;;;;3.08;2.50;;;;;;;24.56;34.96;101488.28;5055228;28;20025;-75
2021/10/20 08:30:37;;;;;;;7.15;4.32;;;;;;;24.26;35.86;101486.22;5055615;28;20033;-73
2021/10/20 08:33:06;;;;;;;5.07;4.55;;;;;;;24.37;35.41;101477.56;5055649;28;20397;-75
2021/10/20 08:35:37;;;;;;;5.10;3.97;;;;;;;23.45;36.61;101488.72;5056557;28;20463;-73
2021/10/20 08:38:06;;;;;;;4.07;3.75;;;;;;;24.09;36.28;101492.13;5055275;28;20104;-73
2021/10/20 08:40:38;;;;;;;5.78;4.72;;;;;;;24.53;35.02;101486.28;5055708;28;20470;-73
2021/10/20 08:43:08;;;;;;;6.95;4.15;;;;;;;24.43;35.38;101487.25;5055206;28;20327;-74
2021/10/20 08:45:36;;;;;;;4.13;3.42;;;;;;;23.92;36.75;101488.28;5054965;28;20060;-74
2021/10/20 08:48:02;;;;;;;5.43;3.85;;;;;;;24.75;36.22;101488.81;5054887;28;20021;-74
2021/10/20 08:50:31;;;;;;;3.95;3.45;;;;;;;24.29;36.37;101490.25;5055092;28;20033;-74
2021/10/20 08:53:00;;;;;;;3.30;2.95;;;;;;;24.60;37.17;101484.56;5054510;28;20029;-75
2021/10/20 08:55:26;;;;;;;3.30;3.00;;;;;;;23.94;38.78;101478.09;5056536;28;20413;-74
2021/10/20 08:57:55;;;;;;;5.82;3.13;;;;;;;23.84;39.33;101484.69;5054602;28;20033;-74
2021/10/20 09:00:22;;;;;;;4.00;3.00;;;;;;;24.20;38.00;101487.13;5056258;28;20356;-75
2021/10/20 09:02:54;;;;;;;3.53;3.22;;;;;;;23.71;38.86;101492.97;5054373;28;20029;-74
2021/10/20 09:05:26;;;;;;;3.90;3.50;;;;;;;24.21;38.17;101489.53;5054331;28;20060;-74
2021/10/20 09:07:55;;;;;;;4.45;2.63;;;;;;;24.83;37.18;101479.75;5053720;28;20111;-75
2021/10/20 09:10:23;;;;;;;2.95;2.75;;;;;;;25.36;35.44;101487.88;5054620;28;20032;-75
2021/10/20 09:12:55;;;;;;;2.40;2.20;;;;;;;25.67;33.75;101485.66;5054897;28;20170;-75
2021/10/20 09:15:28;;;;;;;4.15;2.60;;;;;;;26.32;32.88;101486.03;5053921;28;20041;-74
2021/10/20 09:17:58;;;;;;;3.58;3.08;;;;;;;26.64;32.66;101482.50;5054596;28;20125;-75
2021/10/20 09:20:44;;;;;;;3.83;2.33;;;;;;;26.73;31.99;101487.56;5054186;28;20036;-75
2021/10/20 09:23:18;;;;;;;4.57;3.00;;;;;;;27.28;31.54;101483.81;5054562;28;20029;-75
2021/10/20 09:25:57;;;;;;;2.58;2.17;;;;;;;27.47;29.01;101473.50;5053987;28;20037;-75
2021/10/20 09:28:33;;;;;;;2.75;2.58;;;;;;;26.58;30.18;101482.22;5054032;28;20059;-75
2021/10/20 09:31:03;;;;;;;2.72;2.53;;;;;;;25.97;29.82;101482.66;5054506;28;20445;-75
2021/10/20 09:33:33;;;;;;;2.13;2.03;;;;;;;26.53;28.21;101482.72;5053963;28;20476;-75
2021/10/20 09:36:03;;;;;;;2.20;2.00;;;;;;;26.26;29.66;101479.22;5053987;28;20037;-74
2021/10/20 09:38:34;;;;;;;3.17;2.85;;;;;;;26.06;31.70;101480.03;5037220;28;20029;-76
2021/10/20 09:41:07;;;;;;;3.30;3.00;;;;;;;26.69;31.61;101475.44;5054054;28;20021;-75
2021/10/20 09:43:41;;;;;;;3.35;2.95;;;;;;;26.88;31.19;101477.41;5054548;28;20029;-75
2021/10/20 09:46:10;;;;;;;5.93;3.38;;;;;;;26.12;32.86;101481.13;5055500;28;20120;-75
2021/10/20 09:48:42;;;;;;;3.50;3.20;;;;;;;25.91;32.99;101473.00;5053896;28;20024;-74
2021/10/20 09:51:12;;;;;;;4.38;3.45;;;;;;;25.32;33.97;101465.16;5053998;28;20121;-75
2021/10/20 09:53:44;;;;;;;3.30;3.00;;;;;;;24.75;34.61;101477.44;5054090;28;20116;-75
2021/10/20 09:56:23;;;;;;;2.78;2.47;;;;;;;24.42;35.64;101471.41;5054028;28;20107;-75
2021/10/20 09:58:53;;;;;;;3.28;2.97;;;;;;;24.92;35.09;101464.16;5054081;28;20028;-74
2021/10/20 10:01:24;;;;;;;2.08;1.88;;;;;;;24.51;35.94;101474.53;5055391;28;20036;-75
2021/10/20 10:03:51;;;;;;;2.47;2.20;;;;;;;24.27;36.29;101465.06;5053393;28;20032;-75
2021/10/20 10:06:17;;;;;;;2.40;2.20;;;;;;;24.28;35.02;101466.69;5053348;28;20036;-75
2021/10/20 10:08:46;;;;;;;2.78;2.10;;;;;;;23.39;36.71;101462.00;5053341;28;20025;-75
2021/10/20 10:11:15;;;;;;;2.35;2.03;;;;;;;24.06;35.44;101462.50;5053370;28;20036;-74
2021/10/20 10:13:51;;;;;;;1.98;1.88;;;;;;;23.94;35.69;101446.81;5053254;28;20051;-75
2021/10/20 10:16:27;;;;;;;2.30;2.20;;;;;;;23.66;35.93;101452.84;5053170;28;20056;-75
2021/10/20 10:19:01;;;;;;;2.50;1.80;;;;;;;24.19;35.42;101454.25;5051911;28;20033;-75
2021/10/20 10:21:28;;;;;;;2.50;2.30;;;;;;;23.84;36.60;101447.75;5054417;28;20376;-75
2021/10/20 10:23:55;;;;;;;2.10;2.00;;;;;;;24.19;36.05;101446.50;5052542;28;20056;-75
2021/10/20 10:26:21;;;;;;;2.13;1.92;;;;;;;25.16;34.85;101439.41;5052817;28;20036;-75
2021/10/20 10:29:05;;;;;;;7.28;2.55;;;;;;;25.55;34.40;101441.53;5052620;28;20025;-74
2021/10/20 10:31:36;;;;;;;3.92;3.13;;;;;;;25.16;35.37;101433.69;5052228;28;20041;-74
2021/10/20 10:34:04;;;;;;;2.60;2.38;;;;;;;25.54;34.70;101437.06;5052012;28;20496;-75
2021/10/20 10:36:32;;;;;;;3.63;2.17;;;;;;;25.55;33.85;101432.97;5052412;28;20029;-73
2021/10/20 10:38:58;;;;;;;2.97;2.00;;;;;;;25.58;34.51;101438.59;5052243;28;20028;-76
2021/10/20 10:41:27;;;;;;;2.30;2.08;;;;;;;25.87;34.51;101432.38;5052799;28;20055;-75
2021/10/20 10:44:02;;;;;;;3.60;1.95;;;;;;;25.84;33.92;101430.41;5052499;28;20048;-75
2021/10/20 10:46:39;;;;;;;2.10;1.98;;;;;;;26.78;32.83;101436.44;5053360;28;20132;-75
2021/10/20 10:49:25;;;;;;;2.20;2.10;;;;;;;25.94;33.28;101429.38;5053401;28;20025;-74
2021/10/20 10:52:03;;;;;;;2.35;2.15;;;;;;;25.93;33.65;101433.44;5052277;28;20376;-74
2021/10/20 10:54:37;;;;;;;3.85;2.05;;;;;;;25.56;34.05;101426.81;5052931;28;20494;-75
2021/10/20 10:57:13;;;;;;;2.05;1.95;;;;;;;25.45;33.66;101417.69;5053523;28;20374;-74
2021/10/20 10:59:53;;;;;;;3.08;1.92;;;;;;;25.27;33.78;101417.22;5052827;28;20116;-75
2021/10/20 11:02:44;;;;;;;3.35;2.60;;;;;;;25.49;33.97;101424.13;5052708;28;20033;-74
2021/10/20 11:05:13;;;;;;;1.98;1.70;;;;;;;25.72;31.53;101417.56;5052975;28;20378;-76
2021/10/20 11:07:49;;;;;;;1.77;1.67;;;;;;;26.18;30.62;101417.88;5052667;28;20029;-75
2021/10/20 11:10:20;;;;;;;3.22;1.70;;;;;;;26.48;30.41;101411.91;5054141;28;20017;-75
2021/10/20 11:12:56;;;;;;;1.80;1.70;;;;;;;26.79;31.15;101408.69;5052579;28;20033;-75
2021/10/20 11:15:24;;;;;;;2.33;1.92;;;;;;;26.88;31.01;101408.91;5038130;28;20439;-75
2021/10/20 11:17:49;;;;;;;3.25;1.98;;;;;;;26.46;31.95;101388.69;5015534;28;20029;-76
2021/10/20 11:20:18;;;;;;;2.78;2.30;;;;;;;26.75;31.13;101396.59;5014863;28;20037;-75
2021/10/20 11:22:56;;;;;;;1.67;1.58;;;;;;;26.76;30.07;101395.34;5016610;28;20044;-75
2021/10/20 11:25:23;;;;;;;2.45;1.52;;;;;;;26.68;30.21;101393.91;5016162;28;20506;-75
2021/10/20 11:27:58;;;;;;;1.83;1.73;;;;;;;26.56;31.08;101387.66;5016231;28;20030;-75
2021/10/20 11:30:26;;;;;;;5.45;2.83;;;;;;;26.53;32.60;101390.59;5015931;28;20041;-75
2021/10/20 11:32:52;;;;;;;2.85;2.40;;;;;;;25.73;34.84;101387.84;5015784;28;20135;-75